sensor_id;sensor_type;location;lat;lon;timestamp;P1;durP1;ratioP1;P2;durP2;ratioP2
16878;SDS011;8556;52.218;9.884;2022-09-21T00:00:10;4.53;;;3.70;;
16878;SDS011;8556;52.218;9.884;2022-09-21T00:02:38;5.77;;;3.47;;
16878;SDS011;8556;52.218;9.884;2022-09-21T00:05:06;4.27;;;3.53;;
16878;SDS011;8556;52.218;9.884;2022-09-21T00:07:33;5.97;;;3.90;;
16878;SDS011;8556;52.218;9.884;2022-09-21T00:10:00;7.03;;;3.73;;
16878;SDS011;8556;52.218;9.884;2022-09-21T00:12:27;7.10;;;3.83;;
16878;SDS011;8556;52.218;9.884;2022-09-21T00:14:54;5.17;;;3.80;;
16878;SDS011;8556;52.218;9.884;2022-09-21T00:17:22;8.83;;;4.20;;
16878;SDS011;8556;52.218;9.884;2022-09-21T00:19:48;5.43;;;3.93;;
16878;SDS011;8556;52.218;9.884;2022-09-21T00:22:18;6.27;;;3.60;;
16878;SDS011;8556;52.218;9.884;2022-09-21T00:24:45;5.97;;;3.87;;
16878;SDS011;8556;52.218;9.884;2022-09-21T00:27:11;5.67;;;4.00;;
16878;SDS011;8556;52.218;9.884;2022-09-21T00:29:38;9.37;;;4.20;;
16878;SDS011;8556;52.218;9.884;2022-09-21T00:32:05;5.80;;;3.43;;
16878;SDS011;8556;52.218;9.884;2022-09-21T00:34:32;8.60;;;4.07;;
16878;SDS011;8556;52.218;9.884;2022-09-21T00:36:58;6.23;;;4.33;;
16878;SDS011;8556;52.218;9.884;2022-09-21T00:39:27;7.07;;;4.17;;
16878;SDS011;8556;52.218;9.884;2022-09-21T00:41:53;6.27;;;4.23;;
16878;SDS011;8556;52.218;9.884;2022-09-21T00:44:23;7.00;;;4.47;;
16878;SDS011;8556;52.218;9.884;2022-09-21T00:46:54;7.00;;;4.23;;
16878;SDS011;8556;52.218;9.884;2022-09-21T00:49:23;8.07;;;4.17;;
16878;SDS011;8556;52.218;9.884;2022-09-21T00:51:51;6.63;;;4.17;;
16878;SDS011;8556;52.218;9.884;2022-09-21T00:54:19;5.47;;;4.07;;
16878;SDS011;8556;52.218;9.884;2022-09-21T00:56:52;5.73;;;4.40;;
16878;SDS011;8556;52.218;9.884;2022-09-21T00:59:20;8.00;;;3.83;;
16878;SDS011;8556;52.218;9.884;2022-09-21T01:01:48;6.13;;;4.40;;
16878;SDS011;8556;52.218;9.884;2022-09-21T01:04:15;7.67;;;4.53;;
16878;SDS011;8556;52.218;9.884;2022-09-21T01:06:43;5.83;;;4.23;;
16878;SDS011;8556;52.218;9.884;2022-09-21T01:09:11;6.60;;;4.33;;
16878;SDS011;8556;52.218;9.884;2022-09-21T01:11:42;7.43;;;4.33;;
16878;SDS011;8556;52.218;9.884;2022-09-21T01:14:20;7.13;;;4.40;;
16878;SDS011;8556;52.218;9.884;2022-09-21T01:17:05;8.40;;;4.60;;
16878;SDS011;8556;52.218;9.884;2022-09-21T01:19:43;4.93;;;3.90;;
16878;SDS011;8556;52.218;9.884;2022-09-21T01:22:24;5.90;;;4.73;;
16878;SDS011;8556;52.218;9.884;2022-09-21T01:25:04;7.00;;;4.43;;
16878;SDS011;8556;52.218;9.884;2022-09-21T01:27:50;6.40;;;4.37;;
16878;SDS011;8556;52.218;9.884;2022-09-21T01:30:28;6.20;;;4.20;;
16878;SDS011;8556;52.218;9.884;2022-09-21T01:32:58;6.77;;;4.73;;
16878;SDS011;8556;52.218;9.884;2022-09-21T01:35:32;8.00;;;4.43;;
16878;SDS011;8556;52.218;9.884;2022-09-21T01:38:04;5.83;;;4.37;;
16878;SDS011;8556;52.218;9.884;2022-09-21T01:40:38;5.50;;;4.10;;
16878;SDS011;8556;52.218;9.884;2022-09-21T01:43:08;8.27;;;4.70;;
16878;SDS011;8556;52.218;9.884;2022-09-21T01:45:41;5.73;;;4.27;;
16878;SDS011;8556;52.218;9.884;2022-09-21T01:48:12;8.10;;;4.33;;
16878;SDS011;8556;52.218;9.884;2022-09-21T01:50:41;6.17;;;4.43;;
16878;SDS011;8556;52.218;9.884;2022-09-21T01:53:12;6.63;;;4.47;;
16878;SDS011;8556;52.218;9.884;2022-09-21T01:55:44;6.60;;;4.97;;
16878;SDS011;8556;52.218;9.884;2022-09-21T01:58:15;8.93;;;4.97;;
16878;SDS011;8556;52.218;9.884;2022-09-21T02:00:49;7.40;;;5.17;;
16878;SDS011;8556;52.218;9.884;2022-09-21T02:03:20;7.07;;;4.50;;
16878;SDS011;8556;52.218;9.884;2022-09-21T02:05:53;7.00;;;4.80;;
16878;SDS011;8556;52.218;9.884;2022-09-21T02:08:21;7.80;;;5.00;;
16878;SDS011;8556;52.218;9.884;2022-09-21T02:10:51;7.53;;;4.70;;
16878;SDS011;8556;52.218;9.884;2022-09-21T02:13:19;7.27;;;4.47;;
16878;SDS011;8556;52.218;9.884;2022-09-21T02:18:42;9.50;;;5.27;;
16878;SDS011;8556;52.218;9.884;2022-09-21T02:21:20;6.70;;;5.07;;
16878;SDS011;8556;52.218;9.884;2022-09-21T02:23:56;7.30;;;5.00;;
16878;SDS011;8556;52.218;9.884;2022-09-21T02:26:32;6.60;;;4.87;;
16878;SDS011;8556;52.218;9.884;2022-09-21T02:29:06;8.87;;;5.47;;
16878;SDS011;8556;52.218;9.884;2022-09-21T02:31:44;8.30;;;5.20;;
16878;SDS011;8556;52.218;9.884;2022-09-21T02:34:18;9.07;;;5.03;;
16878;SDS011;8556;52.218;9.884;2022-09-21T02:36:53;7.63;;;5.03;;
16878;SDS011;8556;52.218;9.884;2022-09-21T02:39:25;8.90;;;5.30;;
16878;SDS011;8556;52.218;9.884;2022-09-21T02:42:00;9.33;;;5.80;;
16878;SDS011;8556;52.218;9.884;2022-09-21T02:44:32;8.97;;;5.47;;
16878;SDS011;8556;52.218;9.884;2022-09-21T02:47:07;8.30;;;5.77;;
16878;SDS011;8556;52.218;9.884;2022-09-21T02:49:38;8.40;;;5.23;;
16878;SDS011;8556;52.218;9.884;2022-09-21T02:52:09;8.97;;;5.63;;
16878;SDS011;8556;52.218;9.884;2022-09-21T02:54:38;8.30;;;5.57;;
16878;SDS011;8556;52.218;9.884;2022-09-21T02:57:07;7.53;;;5.60;;
16878;SDS011;8556;52.218;9.884;2022-09-21T02:59:37;9.27;;;5.87;;
16878;SDS011;8556;52.218;9.884;2022-09-21T03:02:04;7.80;;;5.50;;
16878;SDS011;8556;52.218;9.884;2022-09-21T03:04:32;8.17;;;5.60;;
16878;SDS011;8556;52.218;9.884;2022-09-21T03:06:59;6.23;;;5.00;;
16878;SDS011;8556;52.218;9.884;2022-09-21T03:09:26;9.10;;;5.00;;
16878;SDS011;8556;52.218;9.884;2022-09-21T03:11:52;8.07;;;4.93;;
16878;SDS011;8556;52.218;9.884;2022-09-21T03:14:19;7.27;;;5.70;;
16878;SDS011;8556;52.218;9.884;2022-09-21T03:16:46;9.17;;;6.40;;
16878;SDS011;8556;52.218;9.884;2022-09-21T03:19:13;8.37;;;5.40;;
16878;SDS011;8556;52.218;9.884;2022-09-21T03:21:42;7.03;;;5.70;;
16878;SDS011;8556;52.218;9.884;2022-09-21T03:24:08;7.27;;;5.47;;
16878;SDS011;8556;52.218;9.884;2022-09-21T03:26:35;9.00;;;5.90;;
16878;SDS011;8556;52.218;9.884;2022-09-21T03:29:02;9.30;;;5.20;;
16878;SDS011;8556;52.218;9.884;2022-09-21T03:31:29;7.27;;;4.93;;
16878;SDS011;8556;52.218;9.884;2022-09-21T03:33:56;12.93;;;6.20;;
16878;SDS011;8556;52.218;9.884;2022-09-21T03:36:23;19.70;;;13.43;;
16878;SDS011;8556;52.218;9.884;2022-09-21T03:38:51;12.20;;;7.13;;
16878;SDS011;8556;52.218;9.884;2022-09-21T03:41:18;8.93;;;6.47;;
16878;SDS011;8556;52.218;9.884;2022-09-21T03:43:45;7.00;;;5.10;;
16878;SDS011;8556;52.218;9.884;2022-09-21T03:46:12;10.83;;;5.37;;
16878;SDS011;8556;52.218;9.884;2022-09-21T03:48:38;9.17;;;5.40;;
16878;SDS011;8556;52.218;9.884;2022-09-21T03:51:06;11.30;;;6.00;;
16878;SDS011;8556;52.218;9.884;2022-09-21T03:53:33;10.53;;;5.83;;
16878;SDS011;8556;52.218;9.884;2022-09-21T03:56:01;8.33;;;5.63;;
16878;SDS011;8556;52.218;9.884;2022-09-21T03:58:28;9.27;;;5.33;;
16878;SDS011;8556;52.218;9.884;2022-09-21T04:00:59;8.33;;;5.40;;
16878;SDS011;8556;52.218;9.884;2022-09-21T04:03:26;7.60;;;5.53;;
16878;SDS011;8556;52.218;9.884;2022-09-21T04:05:53;9.03;;;5.87;;
16878;SDS011;8556;52.218;9.884;2022-09-21T04:08:20;7.77;;;5.90;;
16878;SDS011;8556;52.218;9.884;2022-09-21T04:10:47;7.53;;;5.40;;
16878;SDS011;8556;52.218;9.884;2022-09-21T04:13:15;11.33;;;6.10;;
16878;SDS011;8556;52.218;9.884;2022-09-21T04:15:42;9.00;;;6.07;;
16878;SDS011;8556;52.218;9.884;2022-09-21T04:18:09;9.47;;;6.30;;
16878;SDS011;8556;52.218;9.884;2022-09-21T04:20:36;10.53;;;6.47;;
16878;SDS011;8556;52.218;9.884;2022-09-21T04:23:03;8.97;;;6.27;;
16878;SDS011;8556;52.218;9.884;2022-09-21T04:25:31;8.40;;;6.03;;
16878;SDS011;8556;52.218;9.884;2022-09-21T04:27:58;10.70;;;6.30;;
16878;SDS011;8556;52.218;9.884;2022-09-21T04:30:26;9.50;;;6.10;;
16878;SDS011;8556;52.218;9.884;2022-09-21T04:32:53;10.87;;;7.03;;
16878;SDS011;8556;52.218;9.884;2022-09-21T04:35:20;21.00;;;11.13;;
16878;SDS011;8556;52.218;9.884;2022-09-21T04:37:47;13.73;;;7.63;;
16878;SDS011;8556;52.218;9.884;2022-09-21T04:40:14;9.50;;;5.93;;
16878;SDS011;8556;52.218;9.884;2022-09-21T04:42:41;8.33;;;5.57;;
16878;SDS011;8556;52.218;9.884;2022-09-21T04:45:08;11.90;;;6.20;;
16878;SDS011;8556;52.218;9.884;2022-09-21T04:47:37;9.43;;;5.33;;
16878;SDS011;8556;52.218;9.884;2022-09-21T04:50:04;11.30;;;6.07;;
16878;SDS011;8556;52.218;9.884;2022-09-21T04:52:31;9.63;;;5.70;;
16878;SDS011;8556;52.218;9.884;2022-09-21T04:54:58;9.80;;;5.77;;
16878;SDS011;8556;52.218;9.884;2022-09-21T04:57:25;8.80;;;5.63;;
16878;SDS011;8556;52.218;9.884;2022-09-21T04:59:52;7.87;;;5.50;;
16878;SDS011;8556;52.218;9.884;2022-09-21T05:02:19;8.10;;;5.40;;
16878;SDS011;8556;52.218;9.884;2022-09-21T05:04:47;7.43;;;5.43;;
16878;SDS011;8556;52.218;9.884;2022-09-21T05:07:15;11.23;;;5.27;;
16878;SDS011;8556;52.218;9.884;2022-09-21T05:09:42;10.93;;;5.87;;
16878;SDS011;8556;52.218;9.884;2022-09-21T05:12:26;9.47;;;5.83;;
16878;SDS011;8556;52.218;9.884;2022-09-21T05:14:53;8.80;;;5.53;;
16878;SDS011;8556;52.218;9.884;2022-09-21T05:17:21;10.07;;;5.77;;
16878;SDS011;8556;52.218;9.884;2022-09-21T05:19:49;7.00;;;4.83;;
16878;SDS011;8556;52.218;9.884;2022-09-21T05:22:17;13.23;;;5.70;;
16878;SDS011;8556;52.218;9.884;2022-09-21T05:24:44;11.93;;;6.23;;
16878;SDS011;8556;52.218;9.884;2022-09-21T05:27:12;13.20;;;5.60;;
16878;SDS011;8556;52.218;9.884;2022-09-21T05:29:39;14.30;;;7.33;;
16878;SDS011;8556;52.218;9.884;2022-09-21T05:32:07;17.50;;;6.27;;
16878;SDS011;8556;52.218;9.884;2022-09-21T05:34:43;21.60;;;6.40;;
16878;SDS011;8556;52.218;9.884;2022-09-21T05:37:19;17.00;;;6.00;;
16878;SDS011;8556;52.218;9.884;2022-09-21T05:40:02;24.70;;;6.43;;
16878;SDS011;8556;52.218;9.884;2022-09-21T05:42:30;28.73;;;6.40;;
16878;SDS011;8556;52.218;9.884;2022-09-21T05:44:57;26.17;;;5.90;;
16878;SDS011;8556;52.218;9.884;2022-09-21T05:47:25;22.33;;;5.90;;
16878;SDS011;8556;52.218;9.884;2022-09-21T05:50:02;12.10;;;5.70;;
16878;SDS011;8556;52.218;9.884;2022-09-21T05:52:44;14.57;;;5.40;;
16878;SDS011;8556;52.218;9.884;2022-09-21T05:55:20;15.03;;;5.40;;
16878;SDS011;8556;52.218;9.884;2022-09-21T05:58:00;19.40;;;5.87;;
16878;SDS011;8556;52.218;9.884;2022-09-21T06:00:36;36.40;;;6.10;;
16878;SDS011;8556;52.218;9.884;2022-09-21T06:03:23;17.27;;;5.37;;
16878;SDS011;8556;52.218;9.884;2022-09-21T06:05:52;16.73;;;6.53;;
16878;SDS011;8556;52.218;9.884;2022-09-21T06:08:21;25.50;;;6.10;;
16878;SDS011;8556;52.218;9.884;2022-09-21T06:10:47;17.20;;;6.10;;
16878;SDS011;8556;52.218;9.884;2022-09-21T06:13:14;20.83;;;6.07;;
16878;SDS011;8556;52.218;9.884;2022-09-21T06:15:41;22.80;;;6.07;;
16878;SDS011;8556;52.218;9.884;2022-09-21T06:18:08;13.17;;;5.87;;
16878;SDS011;8556;52.218;9.884;2022-09-21T06:20:35;16.90;;;6.00;;
16878;SDS011;8556;52.218;9.884;2022-09-21T06:23:02;22.37;;;7.03;;
16878;SDS011;8556;52.218;9.884;2022-09-21T06:25:31;17.53;;;7.47;;
16878;SDS011;8556;52.218;9.884;2022-09-21T06:28:00;15.63;;;6.80;;
16878;SDS011;8556;52.218;9.884;2022-09-21T06:30:28;15.40;;;7.70;;
16878;SDS011;8556;52.218;9.884;2022-09-21T06:32:57;18.17;;;7.70;;
16878;SDS011;8556;52.218;9.884;2022-09-21T06:35:25;18.27;;;7.57;;
16878;SDS011;8556;52.218;9.884;2022-09-21T06:37:56;20.03;;;8.77;;
16878;SDS011;8556;52.218;9.884;2022-09-21T06:40:24;21.20;;;8.77;;
16878;SDS011;8556;52.218;9.884;2022-09-21T06:42:55;16.10;;;7.60;;
16878;SDS011;8556;52.218;9.884;2022-09-21T06:45:23;21.43;;;9.47;;
16878;SDS011;8556;52.218;9.884;2022-09-21T06:47:50;20.33;;;10.33;;
16878;SDS011;8556;52.218;9.884;2022-09-21T06:50:17;21.70;;;10.37;;
16878;SDS011;8556;52.218;9.884;2022-09-21T06:52:44;16.90;;;8.93;;
16878;SDS011;8556;52.218;9.884;2022-09-21T06:55:11;17.77;;;8.53;;
16878;SDS011;8556;52.218;9.884;2022-09-21T06:57:38;16.20;;;9.47;;
16878;SDS011;8556;52.218;9.884;2022-09-21T07:00:08;16.63;;;10.17;;
16878;SDS011;8556;52.218;9.884;2022-09-21T07:02:36;17.10;;;7.97;;
16878;SDS011;8556;52.218;9.884;2022-09-21T07:05:03;23.37;;;9.70;;
16878;SDS011;8556;52.218;9.884;2022-09-21T07:07:30;15.07;;;7.67;;
16878;SDS011;8556;52.218;9.884;2022-09-21T07:09:57;23.80;;;9.27;;
16878;SDS011;8556;52.218;9.884;2022-09-21T07:12:25;15.73;;;8.93;;
16878;SDS011;8556;52.218;9.884;2022-09-21T07:14:53;19.03;;;9.10;;
16878;SDS011;8556;52.218;9.884;2022-09-21T07:17:21;14.60;;;8.20;;
16878;SDS011;8556;52.218;9.884;2022-09-21T07:19:48;14.87;;;8.67;;
16878;SDS011;8556;52.218;9.884;2022-09-21T07:22:15;19.73;;;9.83;;
16878;SDS011;8556;52.218;9.884;2022-09-21T07:24:42;17.20;;;8.60;;
16878;SDS011;8556;52.218;9.884;2022-09-21T07:27:09;12.63;;;6.70;;
16878;SDS011;8556;52.218;9.884;2022-09-21T07:29:36;15.67;;;9.00;;
16878;SDS011;8556;52.218;9.884;2022-09-21T07:32:03;13.17;;;8.50;;
16878;SDS011;8556;52.218;9.884;2022-09-21T07:34:34;16.17;;;9.30;;
16878;SDS011;8556;52.218;9.884;2022-09-21T07:37:02;15.50;;;8.30;;
16878;SDS011;8556;52.218;9.884;2022-09-21T07:39:29;11.03;;;6.60;;
16878;SDS011;8556;52.218;9.884;2022-09-21T07:41:56;14.27;;;7.23;;
16878;SDS011;8556;52.218;9.884;2022-09-21T07:44:23;12.93;;;7.23;;
16878;SDS011;8556;52.218;9.884;2022-09-21T07:46:50;14.90;;;7.60;;
16878;SDS011;8556;52.218;9.884;2022-09-21T07:49:17;14.30;;;8.13;;
16878;SDS011;8556;52.218;9.884;2022-09-21T07:51:45;12.97;;;8.00;;
16878;SDS011;8556;52.218;9.884;2022-09-21T07:54:12;12.30;;;6.00;;
16878;SDS011;8556;52.218;9.884;2022-09-21T07:56:39;14.07;;;6.70;;
16878;SDS011;8556;52.218;9.884;2022-09-21T07:59:27;13.77;;;6.83;;
16878;SDS011;8556;52.218;9.884;2022-09-21T08:01:56;13.53;;;6.77;;
16878;SDS011;8556;52.218;9.884;2022-09-21T08:04:24;13.83;;;7.10;;
16878;SDS011;8556;52.218;9.884;2022-09-21T08:06:52;11.97;;;6.50;;
16878;SDS011;8556;52.218;9.884;2022-09-21T08:09:19;14.13;;;7.20;;
16878;SDS011;8556;52.218;9.884;2022-09-21T08:11:46;12.20;;;7.10;;
16878;SDS011;8556;52.218;9.884;2022-09-21T08:14:13;14.40;;;8.10;;
16878;SDS011;8556;52.218;9.884;2022-09-21T08:16:43;15.00;;;9.03;;
16878;SDS011;8556;52.218;9.884;2022-09-21T08:19:11;15.87;;;7.97;;
16878;SDS011;8556;52.218;9.884;2022-09-21T08:21:38;17.60;;;9.03;;
16878;SDS011;8556;52.218;9.884;2022-09-21T08:24:06;18.17;;;9.27;;
16878;SDS011;8556;52.218;9.884;2022-09-21T08:26:33;16.80;;;8.97;;
16878;SDS011;8556;52.218;9.884;2022-09-21T08:29:00;19.77;;;8.80;;
16878;SDS011;8556;52.218;9.884;2022-09-21T08:31:26;15.80;;;7.83;;
16878;SDS011;8556;52.218;9.884;2022-09-21T08:33:54;17.17;;;8.20;;
16878;SDS011;8556;52.218;9.884;2022-09-21T08:36:22;15.20;;;7.60;;
16878;SDS011;8556;52.218;9.884;2022-09-21T08:38:49;13.23;;;7.20;;
16878;SDS011;8556;52.218;9.884;2022-09-21T08:41:18;15.07;;;8.27;;
16878;SDS011;8556;52.218;9.884;2022-09-21T08:43:48;10.97;;;6.53;;
16878;SDS011;8556;52.218;9.884;2022-09-21T08:46:21;12.90;;;6.77;;
16878;SDS011;8556;52.218;9.884;2022-09-21T08:48:53;13.80;;;7.13;;
16878;SDS011;8556;52.218;9.884;2022-09-21T08:51:25;15.87;;;7.40;;
16878;SDS011;8556;52.218;9.884;2022-09-21T08:53:56;11.27;;;6.07;;
16878;SDS011;8556;52.218;9.884;2022-09-21T08:56:27;12.90;;;5.97;;
16878;SDS011;8556;52.218;9.884;2022-09-21T08:58:54;9.70;;;5.70;;
16878;SDS011;8556;52.218;9.884;2022-09-21T09:01:29;10.37;;;5.53;;
16878;SDS011;8556;52.218;9.884;2022-09-21T09:04:12;12.63;;;4.90;;
16878;SDS011;8556;52.218;9.884;2022-09-21T09:06:54;11.93;;;5.97;;
16878;SDS011;8556;52.218;9.884;2022-09-21T09:09:44;11.20;;;6.00;;
16878;SDS011;8556;52.218;9.884;2022-09-21T09:12:51;12.87;;;5.60;;
16878;SDS011;8556;52.218;9.884;2022-09-21T09:15:33;9.13;;;5.03;;
16878;SDS011;8556;52.218;9.884;2022-09-21T09:18:14;9.30;;;4.83;;
16878;SDS011;8556;52.218;9.884;2022-09-21T09:20:46;9.43;;;4.50;;
16878;SDS011;8556;52.218;9.884;2022-09-21T09:23:19;8.30;;;4.23;;
16878;SDS011;8556;52.218;9.884;2022-09-21T09:25:50;9.93;;;5.57;;
16878;SDS011;8556;52.218;9.884;2022-09-21T09:28:22;12.37;;;4.27;;
16878;SDS011;8556;52.218;9.884;2022-09-21T09:30:55;8.57;;;4.27;;
16878;SDS011;8556;52.218;9.884;2022-09-21T09:33:26;9.13;;;4.50;;
16878;SDS011;8556;52.218;9.884;2022-09-21T09:35:57;10.07;;;4.73;;
16878;SDS011;8556;52.218;9.884;2022-09-21T09:38:28;12.50;;;6.53;;
16878;SDS011;8556;52.218;9.884;2022-09-21T09:41:03;10.33;;;6.10;;
16878;SDS011;8556;52.218;9.884;2022-09-21T09:43:43;9.27;;;5.20;;
16878;SDS011;8556;52.218;9.884;2022-09-21T09:46:20;7.82;;;3.80;;
16878;SDS011;8556;52.218;9.884;2022-09-21T09:49:02;11.13;;;5.30;;
16878;SDS011;8556;52.218;9.884;2022-09-21T09:51:39;8.27;;;3.70;;
16878;SDS011;8556;52.218;9.884;2022-09-21T09:54:10;5.38;;;3.00;;
16878;SDS011;8556;52.218;9.884;2022-09-21T09:56:39;7.22;;;2.97;;
16878;SDS011;8556;52.218;9.884;2022-09-21T09:59:09;5.57;;;2.33;;
16878;SDS011;8556;52.218;9.884;2022-09-21T10:01:39;8.18;;;2.42;;
16878;SDS011;8556;52.218;9.884;2022-09-21T10:04:08;5.03;;;2.30;;
16878;SDS011;8556;52.218;9.884;2022-09-21T10:06:37;5.43;;;2.20;;
16878;SDS011;8556;52.218;9.884;2022-09-21T10:09:22;4.22;;;2.20;;
16878;SDS011;8556;52.218;9.884;2022-09-21T10:11:50;4.82;;;2.33;;
16878;SDS011;8556;52.218;9.884;2022-09-21T10:14:20;4.82;;;1.95;;
16878;SDS011;8556;52.218;9.884;2022-09-21T10:16:49;7.20;;;2.42;;
16878;SDS011;8556;52.218;9.884;2022-09-21T10:19:18;9.85;;;2.17;;
16878;SDS011;8556;52.218;9.884;2022-09-21T10:21:47;5.75;;;2.40;;
16878;SDS011;8556;52.218;9.884;2022-09-21T10:24:20;6.00;;;2.28;;
16878;SDS011;8556;52.218;9.884;2022-09-21T10:26:49;7.80;;;2.03;;
16878;SDS011;8556;52.218;9.884;2022-09-21T10:29:28;6.07;;;2.00;;
16878;SDS011;8556;52.218;9.884;2022-09-21T10:31:57;5.85;;;2.45;;
16878;SDS011;8556;52.218;9.884;2022-09-21T10:34:26;5.57;;;2.08;;
16878;SDS011;8556;52.218;9.884;2022-09-21T10:36:54;5.22;;;2.03;;
16878;SDS011;8556;52.218;9.884;2022-09-21T10:39:23;6.43;;;2.00;;
16878;SDS011;8556;52.218;9.884;2022-09-21T10:41:59;8.20;;;2.08;;
16878;SDS011;8556;52.218;9.884;2022-09-21T10:44:33;3.75;;;1.98;;
16878;SDS011;8556;52.218;9.884;2022-09-21T10:47:12;3.40;;;1.20;;
16878;SDS011;8556;52.218;9.884;2022-09-21T10:49:44;3.92;;;2.05;;
16878;SDS011;8556;52.218;9.884;2022-09-21T10:52:14;3.88;;;1.65;;
16878;SDS011;8556;52.218;9.884;2022-09-21T10:54:43;6.75;;;2.10;;
16878;SDS011;8556;52.218;9.884;2022-09-21T10:57:13;3.70;;;1.70;;
16878;SDS011;8556;52.218;9.884;2022-09-21T10:59:45;2.80;;;1.48;;
16878;SDS011;8556;52.218;9.884;2022-09-21T11:02:23;6.07;;;1.65;;
16878;SDS011;8556;52.218;9.884;2022-09-21T11:05:02;4.68;;;1.70;;
16878;SDS011;8556;52.218;9.884;2022-09-21T11:07:36;5.35;;;1.92;;
16878;SDS011;8556;52.218;9.884;2022-09-21T11:10:09;5.30;;;1.45;;
16878;SDS011;8556;52.218;9.884;2022-09-21T11:12:47;6.43;;;2.05;;
16878;SDS011;8556;52.218;9.884;2022-09-21T11:15:28;3.15;;;1.35;;
16878;SDS011;8556;52.218;9.884;2022-09-21T11:18:02;3.10;;;1.20;;
16878;SDS011;8556;52.218;9.884;2022-09-21T11:20:35;5.50;;;1.33;;
16878;SDS011;8556;52.218;9.884;2022-09-21T11:23:12;4.80;;;1.38;;
16878;SDS011;8556;52.218;9.884;2022-09-21T11:25:49;3.42;;;1.20;;
16878;SDS011;8556;52.218;9.884;2022-09-21T11:28:23;4.78;;;1.25;;
16878;SDS011;8556;52.218;9.884;2022-09-21T11:31:00;6.03;;;1.33;;
16878;SDS011;8556;52.218;9.884;2022-09-21T11:33:37;6.47;;;1.45;;
16878;SDS011;8556;52.218;9.884;2022-09-21T11:36:19;1.77;;;0.80;;
16878;SDS011;8556;52.218;9.884;2022-09-21T11:38:55;3.85;;;1.15;;
16878;SDS011;8556;52.218;9.884;2022-09-21T11:41:34;4.03;;;1.17;;
16878;SDS011;8556;52.218;9.884;2022-09-21T11:44:20;5.70;;;1.20;;
16878;SDS011;8556;52.218;9.884;2022-09-21T11:47:01;3.72;;;1.17;;
16878;SDS011;8556;52.218;9.884;2022-09-21T11:52:36;3.92;;;1.48;;
16878;SDS011;8556;52.218;9.884;2022-09-21T11:55:19;6.10;;;1.40;;
16878;SDS011;8556;52.218;9.884;2022-09-21T11:57:57;4.25;;;2.05;;
16878;SDS011;8556;52.218;9.884;2022-09-21T12:00:29;1.58;;;1.17;;
16878;SDS011;8556;52.218;9.884;2022-09-21T12:06:05;3.65;;;1.00;;
16878;SDS011;8556;52.218;9.884;2022-09-21T12:08:45;4.32;;;1.45;;
16878;SDS011;8556;52.218;9.884;2022-09-21T12:11:23;4.10;;;0.98;;
16878;SDS011;8556;52.218;9.884;2022-09-21T12:14:01;3.92;;;1.20;;
16878;SDS011;8556;52.218;9.884;2022-09-21T12:16:37;1.92;;;0.80;;
16878;SDS011;8556;52.218;9.884;2022-09-21T12:19:16;3.25;;;0.90;;
16878;SDS011;8556;52.218;9.884;2022-09-21T12:21:49;2.65;;;1.15;;
16878;SDS011;8556;52.218;9.884;2022-09-21T12:24:21;2.83;;;0.70;;
16878;SDS011;8556;52.218;9.884;2022-09-21T12:26:55;2.75;;;0.93;;
16878;SDS011;8556;52.218;9.884;2022-09-21T12:29:25;4.38;;;1.17;;
16878;SDS011;8556;52.218;9.884;2022-09-21T12:31:57;4.07;;;0.70;;
16878;SDS011;8556;52.218;9.884;2022-09-21T12:34:31;2.17;;;0.98;;
16878;SDS011;8556;52.218;9.884;2022-09-21T12:37:06;2.53;;;1.27;;
16878;SDS011;8556;52.218;9.884;2022-09-21T12:39:38;2.00;;;0.80;;
16878;SDS011;8556;52.218;9.884;2022-09-21T12:42:12;4.68;;;0.82;;
16878;SDS011;8556;52.218;9.884;2022-09-21T12:44:51;2.80;;;0.98;;
16878;SDS011;8556;52.218;9.884;2022-09-21T12:47:22;1.70;;;0.60;;
16878;SDS011;8556;52.218;9.884;2022-09-21T12:49:57;4.40;;;1.73;;
16878;SDS011;8556;52.218;9.884;2022-09-21T12:52:29;3.03;;;1.35;;
16878;SDS011;8556;52.218;9.884;2022-09-21T12:54:58;2.45;;;1.20;;
16878;SDS011;8556;52.218;9.884;2022-09-21T12:57:32;4.47;;;1.50;;
16878;SDS011;8556;52.218;9.884;2022-09-21T13:00:13;3.15;;;1.30;;
16878;SDS011;8556;52.218;9.884;2022-09-21T13:02:44;2.25;;;1.10;;
16878;SDS011;8556;52.218;9.884;2022-09-21T13:05:20;4.35;;;1.30;;
16878;SDS011;8556;52.218;9.884;2022-09-21T13:08:08;3.92;;;1.15;;
16878;SDS011;8556;52.218;9.884;2022-09-21T13:10:40;3.88;;;1.70;;
16878;SDS011;8556;52.218;9.884;2022-09-21T13:13:22;3.03;;;1.35;;
16878;SDS011;8556;52.218;9.884;2022-09-21T13:15:53;2.75;;;1.38;;
16878;SDS011;8556;52.218;9.884;2022-09-21T13:18:24;6.70;;;1.50;;
16878;SDS011;8556;52.218;9.884;2022-09-21T13:20:54;4.18;;;1.15;;
16878;SDS011;8556;52.218;9.884;2022-09-21T13:23:26;3.00;;;1.13;;
16878;SDS011;8556;52.218;9.884;2022-09-21T13:25:59;3.47;;;0.93;;
16878;SDS011;8556;52.218;9.884;2022-09-21T13:31:39;4.68;;;1.20;;
16878;SDS011;8556;52.218;9.884;2022-09-21T13:34:20;2.25;;;0.93;;
16878;SDS011;8556;52.218;9.884;2022-09-21T13:43:22;2.42;;;0.60;;
16878;SDS011;8556;52.218;9.884;2022-09-21T13:46:10;3.03;;;1.55;;
16878;SDS011;8556;52.218;9.884;2022-09-21T13:49:17;3.78;;;0.47;;
16878;SDS011;8556;52.218;9.884;2022-09-21T13:51:49;2.40;;;1.05;;
16878;SDS011;8556;52.218;9.884;2022-09-21T13:54:19;3.88;;;0.95;;
16878;SDS011;8556;52.218;9.884;2022-09-21T13:56:56;3.05;;;0.98;;
16878;SDS011;8556;52.218;9.884;2022-09-21T13:59:27;2.95;;;1.13;;
16878;SDS011;8556;52.218;9.884;2022-09-21T14:01:54;2.10;;;0.73;;
16878;SDS011;8556;52.218;9.884;2022-09-21T14:04:23;2.00;;;0.80;;
16878;SDS011;8556;52.218;9.884;2022-09-21T14:06:52;2.80;;;1.08;;
16878;SDS011;8556;52.218;9.884;2022-09-21T14:09:21;1.73;;;0.73;;
16878;SDS011;8556;52.218;9.884;2022-09-21T14:11:53;3.10;;;0.88;;
16878;SDS011;8556;52.218;9.884;2022-09-21T14:14:24;3.55;;;0.88;;
16878;SDS011;8556;52.218;9.884;2022-09-21T14:16:57;3.63;;;0.68;;
16878;SDS011;8556;52.218;9.884;2022-09-21T14:22:31;3.33;;;0.77;;
16878;SDS011;8556;52.218;9.884;2022-09-21T14:27:51;3.40;;;0.60;;
16878;SDS011;8556;52.218;9.884;2022-09-21T14:30:21;1.58;;;0.57;;
16878;SDS011;8556;52.218;9.884;2022-09-21T14:32:50;2.63;;;0.80;;
16878;SDS011;8556;52.218;9.884;2022-09-21T14:35:26;1.55;;;0.70;;
16878;SDS011;8556;52.218;9.884;2022-09-21T14:37:58;1.20;;;0.65;;
16878;SDS011;8556;52.218;9.884;2022-09-21T14:40:30;2.80;;;0.70;;
16878;SDS011;8556;52.218;9.884;2022-09-21T14:43:00;2.35;;;0.60;;
16878;SDS011;8556;52.218;9.884;2022-09-21T14:45:40;0.77;;;0.40;;
16878;SDS011;8556;52.218;9.884;2022-09-21T14:48:20;2.53;;;0.45;;
16878;SDS011;8556;52.218;9.884;2022-09-21T14:50:56;2.40;;;0.95;;
16878;SDS011;8556;52.218;9.884;2022-09-21T14:53:30;1.38;;;0.88;;
16878;SDS011;8556;52.218;9.884;2022-09-21T14:56:29;1.42;;;0.52;;
16878;SDS011;8556;52.218;9.884;2022-09-21T14:59:14;2.80;;;0.88;;
16878;SDS011;8556;52.218;9.884;2022-09-21T15:01:54;1.73;;;0.55;;
16878;SDS011;8556;52.218;9.884;2022-09-21T15:04:31;5.38;;;1.02;;
16878;SDS011;8556;52.218;9.884;2022-09-21T15:07:19;1.50;;;0.43;;
16878;SDS011;8556;52.218;9.884;2022-09-21T15:10:26;2.42;;;1.05;;
16878;SDS011;8556;52.218;9.884;2022-09-21T15:13:21;2.15;;;0.60;;
16878;SDS011;8556;52.218;9.884;2022-09-21T15:16:04;2.13;;;0.65;;
16878;SDS011;8556;52.218;9.884;2022-09-21T15:18:45;2.72;;;0.88;;
16878;SDS011;8556;52.218;9.884;2022-09-21T15:21:21;4.47;;;0.90;;
16878;SDS011;8556;52.218;9.884;2022-09-21T15:23:50;4.03;;;0.73;;
16878;SDS011;8556;52.218;9.884;2022-09-21T15:26:19;3.78;;;0.70;;
16878;SDS011;8556;52.218;9.884;2022-09-21T15:28:52;1.85;;;0.45;;
16878;SDS011;8556;52.218;9.884;2022-09-21T15:31:20;1.92;;;0.80;;
16878;SDS011;8556;52.218;9.884;2022-09-21T15:33:48;2.10;;;1.13;;
16878;SDS011;8556;52.218;9.884;2022-09-21T15:36:21;2.88;;;0.75;;
16878;SDS011;8556;52.218;9.884;2022-09-21T15:38:51;3.00;;;0.55;;
16878;SDS011;8556;52.218;9.884;2022-09-21T15:41:37;2.05;;;0.80;;
16878;SDS011;8556;52.218;9.884;2022-09-21T15:44:10;2.33;;;0.70;;
16878;SDS011;8556;52.218;9.884;2022-09-21T15:46:39;2.90;;;0.68;;
16878;SDS011;8556;52.218;9.884;2022-09-21T15:49:11;5.05;;;1.15;;